sensor_id;sensor_type;location;lat;lon;timestamp;pressure;altitude;pressure_sealevel;temperature;humidity
29935;BME280;19905;53.370;-6.314;2023-08-08T00:02:21;101221.88;;;13.89;100.00
29935;BME280;19905;53.370;-6.314;2023-08-08T00:04:49;101225.84;;;13.94;100.00
29935;BME280;19905;53.370;-6.314;2023-08-08T00:07:18;101218.84;;;13.93;100.00
29935;BME280;19905;53.370;-6.314;2023-08-08T00:09:46;101213.53;;;13.93;100.00
29935;BME280;19905;53.370;-6.314;2023-08-08T00:12:16;101210.75;;;13.95;100.00
29935;BME280;19905;53.370;-6.314;2023-08-08T00:14:45;101201.81;;;13.96;100.00
29935;BME280;19905;53.370;-6.314;2023-08-08T00:17:14;101199.03;;;13.97;100.00
29935;BME280;19905;53.370;-6.314;2023-08-08T00:19:42;101190.69;;;14.02;100.00
29935;BME280;19905;53.370;-6.314;2023-08-08T00:22:11;101192.75;;;13.98;100.00
29935;BME280;19905;53.370;-6.314;2023-08-08T00:24:40;101189.50;;;13.95;100.00
29935;BME280;19905;53.370;-6.314;2023-08-08T00:27:09;101180.44;;;13.97;100.00
29935;BME280;19905;53.370;-6.314;2023-08-08T00:29:39;101178.03;;;13.94;100.00
29935;BME280;19905;53.370;-6.314;2023-08-08T00:32:07;101178.88;;;13.95;100.00
29935;BME280;19905;53.370;-6.314;2023-08-08T00:34:36;101173.72;;;13.93;100.00
29935;BME280;19905;53.370;-6.314;2023-08-08T00:37:05;101180.94;;;13.91;100.00
29935;BME280;19905;53.370;-6.314;2023-08-08T00:39:33;101182.06;;;13.89;100.00
29935;BME280;19905;53.370;-6.314;2023-08-08T00:42:03;101186.63;;;13.87;100.00
29935;BME280;19905;53.370;-6.314;2023-08-08T00:44:31;101182.91;;;13.89;100.00
29935;BME280;19905;53.370;-6.314;2023-08-08T00:47:02;101182.06;;;13.89;100.00
29935;BME280;19905;53.370;-6.314;2023-08-08T00:49:31;101178.56;;;13.88;100.00
29935;BME280;19905;53.370;-6.314;2023-08-08T00:52:00;101170.22;;;13.93;100.00
29935;BME280;19905;53.370;-6.314;2023-08-08T00:54:28;101170.91;;;13.95;100.00
29935;BME280;19905;53.370;-6.314;2023-08-08T00:56:58;101169.09;;;13.95;100.00
29935;BME280;19905;53.370;-6.314;2023-08-08T00:59:27;101164.38;;;13.99;100.00
29935;BME280;19905;53.370;-6.314;2023-08-08T01:01:57;101165.81;;;14.03;100.00
29935;BME280;19905;53.370;-6.314;2023-08-08T01:04:28;101162.44;;;14.01;100.00
29935;BME280;19905;53.370;-6.314;2023-08-08T01:07:04;101161.13;;;13.95;100.00
29935;BME280;19905;53.370;-6.314;2023-08-08T01:09:38;101154.53;;;13.90;100.00
29935;BME280;19905;53.370;-6.314;2023-08-08T01:12:11;101160.81;;;13.89;100.00
29935;BME280;19905;53.370;-6.314;2023-08-08T01:14:43;101160.66;;;13.90;100.00
29935;BME280;19905;53.370;-6.314;2023-08-08T01:17:12;101155.13;;;13.93;100.00
29935;BME280;19905;53.370;-6.314;2023-08-08T01:19:44;101158.47;;;13.95;100.00
29935;BME280;19905;53.370;-6.314;2023-08-08T01:22:19;101161.25;;;13.94;100.00
29935;BME280;19905;53.370;-6.314;2023-08-08T01:24:54;101160.16;;;13.96;100.00
29935;BME280;19905;53.370;-6.314;2023-08-08T01:27:23;101168.00;;;13.98;100.00
29935;BME280;19905;53.370;-6.314;2023-08-08T01:29:53;101168.25;;;13.95;100.00
29935;BME280;19905;53.370;-6.314;2023-08-08T01:32:21;101165.75;;;13.93;100.00
29935;BME280;19905;53.370;-6.314;2023-08-08T01:34:51;101158.47;;;13.95;100.00
29935;BME280;19905;53.370;-6.314;2023-08-08T01:37:24;101164.63;;;13.96;100.00
29935;BME280;19905;53.370;-6.314;2023-08-08T01:40:01;101160.75;;;14.00;100.00
29935;BME280;19905;53.370;-6.314;2023-08-08T01:42:30;101162.44;;;14.01;100.00
29935;BME280;19905;53.370;-6.314;2023-08-08T01:45:00;101158.81;;;14.02;100.00
29935;BME280;19905;53.370;-6.314;2023-08-08T01:47:30;101159.75;;;14.01;100.00
29935;BME280;19905;53.370;-6.314;2023-08-08T01:49:59;101156.41;;;13.99;100.00
29935;BME280;19905;53.370;-6.314;2023-08-08T01:52:29;101160.59;;;14.02;100.00
29935;BME280;19905;53.370;-6.314;2023-08-08T01:54:57;101154.34;;;14.03;100.00
29935;BME280;19905;53.370;-6.314;2023-08-08T01:57:27;101165.22;;;13.99;100.00
29935;BME280;19905;53.370;-6.314;2023-08-08T01:59:56;101161.59;;;14.01;100.00
29935;BME280;19905;53.370;-6.314;2023-08-08T02:02:25;101164.25;;;14.01;100.00
29935;BME280;19905;53.370;-6.314;2023-08-08T02:04:54;101158.81;;;14.02;100.00
29935;BME280;19905;53.370;-6.314;2023-08-08T02:07:23;101154.59;;;13.99;100.00
29935;BME280;19905;53.370;-6.314;2023-08-08T02:09:51;101154.00;;;13.96;100.00
29935;BME280;19905;53.370;-6.314;2023-08-08T02:12:20;101145.56;;;13.91;100.00
29935;BME280;19905;53.370;-6.314;2023-08-08T02:14:50;101151.88;;;13.90;100.00
29935;BME280;19905;53.370;-6.314;2023-08-08T02:17:19;101141.50;;;13.87;100.00
29935;BME280;19905;53.370;-6.314;2023-08-08T02:19:47;101137.28;;;13.84;100.00
29935;BME280;19905;53.370;-6.314;2023-08-08T02:22:16;101140.06;;;13.83;100.00
29935;BME280;19905;53.370;-6.314;2023-08-08T02:24:45;101132.09;;;13.83;100.00
29935;BME280;19905;53.370;-6.314;2023-08-08T02:27:13;101127.38;;;13.86;100.00
29935;BME280;19905;53.370;-6.314;2023-08-08T02:29:42;101132.44;;;13.89;100.00
29935;BME280;19905;53.370;-6.314;2023-08-08T02:32:12;101122.66;;;13.90;100.00
29935;BME280;19905;53.370;-6.314;2023-08-08T02:34:41;101118.19;;;13.90;100.00
29935;BME280;19905;53.370;-6.314;2023-08-08T02:37:10;101121.09;;;13.87;100.00
29935;BME280;19905;53.370;-6.314;2023-08-08T02:39:39;101120.13;;;13.88;100.00
29935;BME280;19905;53.370;-6.314;2023-08-08T02:42:07;101125.94;;;13.82;100.00
29935;BME280;19905;53.370;-6.314;2023-08-08T02:44:36;101122.31;;;13.83;100.00
29935;BME280;19905;53.370;-6.314;2023-08-08T02:47:05;101129.06;;;13.87;100.00
29935;BME280;19905;53.370;-6.314;2023-08-08T02:49:35;101127.13;;;13.89;100.00
29935;BME280;19905;53.370;-6.314;2023-08-08T02:52:04;101122.78;;;13.88;100.00
29935;BME280;19905;53.370;-6.314;2023-08-08T02:54:32;101116.75;;;13.86;100.00
29935;BME280;19905;53.370;-6.314;2023-08-08T02:57:01;101126.41;;;13.87;100.00
29935;BME280;19905;53.370;-6.314;2023-08-08T02:59:30;101122.66;;;13.90;100.00
29935;BME280;19905;53.370;-6.314;2023-08-08T03:01:58;101125.91;;;13.93;100.00
29935;BME280;19905;53.370;-6.314;2023-08-08T03:04:28;101119.63;;;13.94;100.00
29935;BME280;19905;53.370;-6.314;2023-08-08T03:06:58;101125.75;;;13.95;100.00
29935;BME280;19905;53.370;-6.314;2023-08-08T03:09:29;101117.09;;;13.93;100.00
29935;BME280;19905;53.370;-6.314;2023-08-08T03:11:57;101116.22;;;13.92;100.00
29935;BME280;19905;53.370;-6.314;2023-08-08T03:14:27;101116.06;;;13.84;100.00
29935;BME280;19905;53.370;-6.314;2023-08-08T03:16:56;101124.84;;;13.85;100.00
29935;BME280;19905;53.370;-6.314;2023-08-08T03:19:25;101122.31;;;13.83;100.00
29935;BME280;19905;53.370;-6.314;2023-08-08T03:21:53;101111.69;;;13.83;100.00
29935;BME280;19905;53.370;-6.314;2023-08-08T03:24:24;101116.06;;;13.84;100.00
29935;BME280;19905;53.370;-6.314;2023-08-08T03:26:52;101116.44;;;13.80;100.00
29935;BME280;19905;53.370;-6.314;2023-08-08T03:29:21;101112.22;;;13.77;100.00
29935;BME280;19905;53.370;-6.314;2023-08-08T03:31:49;101111.13;;;13.80;100.00
29935;BME280;19905;53.370;-6.314;2023-08-08T03:34:18;101114.63;;;13.80;100.00
29935;BME280;19905;53.370;-6.314;2023-08-08T03:36:47;101125.25;;;13.80;100.00
29935;BME280;19905;53.370;-6.314;2023-08-08T03:39:16;101118.50;;;13.76;100.00
29935;BME280;19905;53.370;-6.314;2023-08-08T03:41:46;101126.84;;;13.71;100.00
29935;BME280;19905;53.370;-6.314;2023-08-08T03:44:15;101133.38;;;13.67;100.00
29935;BME280;19905;53.370;-6.314;2023-08-08T03:46:44;101129.16;;;13.65;100.00
29935;BME280;19905;53.370;-6.314;2023-08-08T03:49:12;101118.91;;;13.60;100.00
29935;BME280;19905;53.370;-6.314;2023-08-08T03:51:41;101119.63;;;13.62;100.00
29935;BME280;19905;53.370;-6.314;2023-08-08T03:54:10;101127.38;;;13.54;100.00
29935;BME280;19905;53.370;-6.314;2023-08-08T03:56:38;101124.41;;;13.47;100.00
29935;BME280;19905;53.370;-6.314;2023-08-08T03:59:08;101123.59;;;13.36;100.00
29935;BME280;19905;53.370;-6.314;2023-08-08T04:01:37;101121.66;;;13.38;100.00
29935;BME280;19905;53.370;-6.314;2023-08-08T04:04:06;101114.28;;;13.41;100.00
29935;BME280;19905;53.370;-6.314;2023-08-08T04:06:34;101121.41;;;13.41;100.00
29935;BME280;19905;53.370;-6.314;2023-08-08T04:09:03;101112.66;;;13.29;100.00
29935;BME280;19905;53.370;-6.314;2023-08-08T04:11:32;101115.16;;;13.31;100.00
29935;BME280;19905;53.370;-6.314;2023-08-08T04:14:02;101116.38;;;13.27;100.00
29935;BME280;19905;53.370;-6.314;2023-08-08T04:16:34;101104.66;;;13.18;100.00
29935;BME280;19905;53.370;-6.314;2023-08-08T04:19:02;101100.09;;;13.09;100.00
29935;BME280;19905;53.370;-6.314;2023-08-08T04:21:31;101104.09;;;12.92;100.00
29935;BME280;19905;53.370;-6.314;2023-08-08T04:24:01;101115.31;;;12.73;100.00
29935;BME280;19905;53.370;-6.314;2023-08-08T04:26:30;101118.59;;;12.65;100.00
29935;BME280;19905;53.370;-6.314;2023-08-08T04:29:02;101125.56;;;12.55;100.00
29935;BME280;19905;53.370;-6.314;2023-08-08T04:31:31;101120.03;;;12.47;100.00
29935;BME280;19905;53.370;-6.314;2023-08-08T04:34:01;101113.78;;;12.48;100.00
29935;BME280;19905;53.370;-6.314;2023-08-08T04:36:30;101105.59;;;12.51;100.00
29935;BME280;19905;53.370;-6.314;2023-08-08T04:38:59;101109.53;;;12.45;100.00
29935;BME280;19905;53.370;-6.314;2023-08-08T04:41:27;101113.03;;;12.46;100.00
29935;BME280;19905;53.370;-6.314;2023-08-08T04:43:56;101106.88;;;12.45;100.00
29935;BME280;19905;53.370;-6.314;2023-08-08T04:46:26;101111.00;;;12.38;100.00
29935;BME280;19905;53.370;-6.314;2023-08-08T04:48:54;101101.94;;;12.41;100.00
29935;BME280;19905;53.370;-6.314;2023-08-08T04:51:26;101102.69;;;12.43;100.00
29935;BME280;19905;53.370;-6.314;2023-08-08T04:53:55;101106.44;;;12.52;100.00
29935;BME280;19905;53.370;-6.314;2023-08-08T04:56:24;101097.50;;;12.53;100.00
29935;BME280;19905;53.370;-6.314;2023-08-08T04:58:55;101089.56;;;12.53;100.00
29935;BME280;19905;53.370;-6.314;2023-08-08T05:01:24;101087.03;;;12.51;100.00
29935;BME280;19905;53.370;-6.314;2023-08-08T05:03:52;101084.25;;;12.53;100.00
29935;BME280;19905;53.370;-6.314;2023-08-08T05:06:22;101077.03;;;12.55;100.00
29935;BME280;19905;53.370;-6.314;2023-08-08T05:08:53;101084.25;;;12.53;100.00
29935;BME280;19905;53.370;-6.314;2023-08-08T05:11:27;101085.22;;;12.52;100.00
29935;BME280;19905;53.370;-6.314;2023-08-08T05:13:55;101083.88;;;12.46;100.00
29935;BME280;19905;53.370;-6.314;2023-08-08T05:16:24;101080.16;;;12.49;100.00
29935;BME280;19905;53.370;-6.314;2023-08-08T05:18:53;101084.13;;;12.54;100.00
29935;BME280;19905;53.370;-6.314;2023-08-08T05:21:21;101087.25;;;12.59;100.00
29935;BME280;19905;53.370;-6.314;2023-08-08T05:23:52;101083.31;;;12.65;100.00
29935;BME280;19905;53.370;-6.314;2023-08-08T05:26:21;101084.38;;;12.62;100.00
29935;BME280;19905;53.370;-6.314;2023-08-08T05:28:49;101090.38;;;12.64;100.00
29935;BME280;19905;53.370;-6.314;2023-08-08T05:31:19;101085.44;;;12.60;100.00
29935;BME280;19905;53.370;-6.314;2023-08-08T05:33:48;101084.50;;;12.61;100.00
29935;BME280;19905;53.370;-6.314;2023-08-08T05:36:17;101082.56;;;12.63;100.00
29935;BME280;19905;53.370;-6.314;2023-08-08T05:38:46;101083.78;;;12.70;100.00
29935;BME280;19905;53.370;-6.314;2023-08-08T05:41:16;101074.50;;;12.76;100.00
29935;BME280;19905;53.370;-6.314;2023-08-08T05:43:45;101076.03;;;12.78;100.00
29935;BME280;19905;53.370;-6.314;2023-08-08T05:46:14;101078.81;;;12.77;100.00
29935;BME280;19905;53.370;-6.314;2023-08-08T05:48:42;101083.50;;;12.73;100.00
29935;BME280;19905;53.370;-6.314;2023-08-08T05:51:13;101091.47;;;12.73;100.00
29935;BME280;19905;53.370;-6.314;2023-08-08T05:53:41;101095.69;;;12.76;100.00
29935;BME280;19905;53.370;-6.314;2023-08-08T05:56:11;101097.00;;;12.81;100.00
29935;BME280;19905;53.370;-6.314;2023-08-08T05:58:42;101094.00;;;12.86;100.00
29935;BME280;19905;53.370;-6.314;2023-08-08T06:01:11;101095.94;;;12.84;100.00
29935;BME280;19905;53.370;-6.314;2023-08-08T06:03:40;101094.97;;;12.85;100.00
29935;BME280;19905;53.370;-6.314;2023-08-08T06:06:09;101094.38;;;12.92;100.00
29935;BME280;19905;53.370;-6.314;2023-08-08T06:08:38;101085.91;;;12.98;100.00
29935;BME280;19905;53.370;-6.314;2023-08-08T06:11:06;101089.75;;;13.06;100.00
29935;BME280;19905;53.370;-6.314;2023-08-08T06:13:36;101079.16;;;13.06;100.00
29935;BME280;19905;53.370;-6.314;2023-08-08T06:16:08;101078.28;;;13.05;100.00
29935;BME280;19905;53.370;-6.314;2023-08-08T06:18:36;101083.94;;;13.12;100.00
29935;BME280;19905;53.370;-6.314;2023-08-08T06:21:11;101070.91;;;13.20;100.00
29935;BME280;19905;53.370;-6.314;2023-08-08T06:23:48;101079.84;;;13.30;100.00
29935;BME280;19905;53.370;-6.314;2023-08-08T06:26:25;101069.31;;;13.40;100.00
29935;BME280;19905;53.370;-6.314;2023-08-08T06:28:59;101071.56;;;13.44;100.00
29935;BME280;19905;53.370;-6.314;2023-08-08T06:31:29;101075.13;;;13.55;100.00
29935;BME280;19905;53.370;-6.314;2023-08-08T06:33:59;101072.38;;;13.56;100.00
29935;BME280;19905;53.370;-6.314;2023-08-08T06:36:29;101074.13;;;13.67;100.00
29935;BME280;19905;53.370;-6.314;2023-08-08T06:38:58;101061.06;;;13.75;100.00
29935;BME280;19905;53.370;-6.314;2023-08-08T06:41:30;101066.81;;;13.80;100.00
29935;BME280;19905;53.370;-6.314;2023-08-08T06:44:13;101084.03;;;13.86;100.00
29935;BME280;19905;53.370;-6.314;2023-08-08T06:46:49;101080.75;;;13.93;100.00
29935;BME280;19905;53.370;-6.314;2023-08-08T06:49:19;101069.84;;;13.96;100.00
29935;BME280;19905;53.370;-6.314;2023-08-08T06:51:51;101060.19;;;13.95;100.00
29935;BME280;19905;53.370;-6.314;2023-08-08T06:54:26;101054.25;;;14.03;100.00
29935;BME280;19905;53.370;-6.314;2023-08-08T06:56:56;101066.84;;;14.11;100.00
29935;BME280;19905;53.370;-6.314;2023-08-08T06:59:27;101071.13;;;14.23;100.00
29935;BME280;19905;53.370;-6.314;2023-08-08T07:02:00;101058.72;;;14.33;100.00
29935;BME280;19905;53.370;-6.314;2023-08-08T07:04:30;101061.53;;;14.32;100.00
29935;BME280;19905;53.370;-6.314;2023-08-08T07:07:09;101062.53;;;14.40;100.00
29935;BME280;19905;53.370;-6.314;2023-08-08T07:09:40;101061.13;;;14.57;100.00
29935;BME280;19905;53.370;-6.314;2023-08-08T07:12:10;101059.19;;;14.69;100.00
29935;BME280;19905;53.370;-6.314;2023-08-08T07:14:43;101053.06;;;14.88;100.00
29935;BME280;19905;53.370;-6.314;2023-08-08T07:17:18;101051.41;;;14.96;100.00
29935;BME280;19905;53.370;-6.314;2023-08-08T07:20:09;101034.34;;;15.09;100.00
29935;BME280;19905;53.370;-6.314;2023-08-08T07:22:41;101025.13;;;15.13;100.00
29935;BME280;19905;53.370;-6.314;2023-08-08T07:25:09;101019.66;;;15.14;100.00
29935;BME280;19905;53.370;-6.314;2023-08-08T07:27:46;101023.03;;;15.26;100.00
29935;BME280;19905;53.370;-6.314;2023-08-08T07:30:16;101023.03;;;15.26;100.00
29935;BME280;19905;53.370;-6.314;2023-08-08T07:32:48;101026.22;;;15.30;100.00
29935;BME280;19905;53.370;-6.314;2023-08-08T07:35:22;101031.00;;;15.26;100.00
29935;BME280;19905;53.370;-6.314;2023-08-08T07:37:58;101034.38;;;15.18;100.00
29935;BME280;19905;53.370;-6.314;2023-08-08T07:40:32;101030.97;;;15.16;100.00
29935;BME280;19905;53.370;-6.314;2023-08-08T07:43:19;101031.44;;;15.21;100.00
29935;BME280;19905;53.370;-6.314;2023-08-08T07:45:50;101025.25;;;15.21;100.00
29935;BME280;19905;53.370;-6.314;2023-08-08T07:48:27;101032.84;;;15.45;100.00
29935;BME280;19905;53.370;-6.314;2023-08-08T07:50:56;101042.50;;;15.46;100.00
29935;BME280;19905;53.370;-6.314;2023-08-08T07:53:31;101047.53;;;15.59;100.00
29935;BME280;19905;53.370;-6.314;2023-08-08T07:56:06;101047.09;;;15.63;100.00
29935;BME280;19905;53.370;-6.314;2023-08-08T07:58:35;101041.78;;;15.63;100.00
29935;BME280;19905;53.370;-6.314;2023-08-08T08:01:07;101048.53;;;15.67;100.00
29935;BME280;19905;53.370;-6.314;2023-08-08T08:03:39;101033.81;;;15.73;100.00
29935;BME280;19905;53.370;-6.314;2023-08-08T08:06:09;101031.97;;;15.73;100.00
29935;BME280;19905;53.370;-6.314;2023-08-08T08:08:37;101018.50;;;15.75;100.00
29935;BME280;19905;53.370;-6.314;2023-08-08T08:11:14;101021.88;;;15.87;100.00
29935;BME280;19905;53.370;-6.314;2023-08-08T08:13:43;101013.97;;;16.05;100.00
29935;BME280;19905;53.370;-6.314;2023-08-08T08:16:12;101022.03;;;16.22;100.00
29935;BME280;19905;53.370;-6.314;2023-08-08T08:18:43;101023.00;;;16.31;100.00
29935;BME280;19905;53.370;-6.314;2023-08-08T08:21:16;101025.41;;;16.24;100.00
29935;BME280;19905;53.370;-6.314;2023-08-08T08:23:47;101012.03;;;16.34;100.00
29935;BME280;19905;53.370;-6.314;2023-08-08T08:26:16;100993.31;;;16.44;100.00
29935;BME280;19905;53.370;-6.314;2023-08-08T08:28:46;101005.19;;;16.59;100.00
29935;BME280;19905;53.370;-6.314;2023-08-08T08:31:14;101004.13;;;16.70;100.00
29935;BME280;19905;53.370;-6.314;2023-08-08T08:33:49;100997.53;;;16.74;100.00
29935;BME280;19905;53.370;-6.314;2023-08-08T08:36:18;100994.56;;;16.77;100.00
29935;BME280;19905;53.370;-6.314;2023-08-08T08:38:51;100989.28;;;16.85;100.00
29935;BME280;19905;53.370;-6.314;2023-08-08T08:41:21;100984.44;;;16.98;100.00
29935;BME280;19905;53.370;-6.314;2023-08-08T08:43:54;100984.13;;;17.01;100.00
29935;BME280;19905;53.370;-6.314;2023-08-08T08:46:25;100988.03;;;17.07;100.00
29935;BME280;19905;53.370;-6.314;2023-08-08T08:48:58;100982.84;;;17.06;100.00
29935;BME280;19905;53.370;-6.314;2023-08-08T08:51:30;100979.63;;;17.20;100.00
29935;BME280;19905;53.370;-6.314;2023-08-08T08:53:59;100985.44;;;17.33;100.00
29935;BME280;19905;53.370;-6.314;2023-08-08T08:56:27;100991.91;;;17.31;100.00
29935;BME280;19905;53.370;-6.314;2023-08-08T08:58:56;100988.31;;;17.22;100.00
29935;BME280;19905;53.370;-6.314;2023-08-08T09:01:25;100999.22;;;17.28;100.00
29935;BME280;19905;53.370;-6.314;2023-08-08T09:03:57;100999.63;;;17.16;100.00
29935;BME280;19905;53.370;-6.314;2023-08-08T09:06:27;100997.69;;;17.26;100.00
29935;BME280;19905;53.370;-6.314;2023-08-08T09:08:56;100987.72;;;17.28;100.00
29935;BME280;19905;53.370;-6.314;2023-08-08T09:11:42;100990.97;;;17.22;100.00
29935;BME280;19905;53.370;-6.314;2023-08-08T09:14:19;100981.00;;;17.24;100.00
29935;BME280;19905;53.370;-6.314;2023-08-08T09:16:49;100989.84;;;17.42;100.00
29935;BME280;19905;53.370;-6.314;2023-08-08T09:19:22;100995.09;;;17.52;100.00
29935;BME280;19905;53.370;-6.314;2023-08-08T09:21:52;100976.59;;;17.59;100.00
29935;BME280;19905;53.370;-6.314;2023-08-08T09:24:21;100976.91;;;17.56;100.00
29935;BME280;19905;53.370;-6.314;2023-08-08T09:26:49;100976.56;;;17.50;100.00
29935;BME280;19905;53.370;-6.314;2023-08-08T09:29:18;100975.66;;;17.68;100.00
29935;BME280;19905;53.370;-6.314;2023-08-08T09:31:50;100982.75;;;17.77;100.00
29935;BME280;19905;53.370;-6.314;2023-08-08T09:34:25;100983.22;;;17.54;100.00
29935;BME280;19905;53.370;-6.314;2023-08-08T09:36:54;100981.56;;;17.53;100.00
29935;BME280;19905;53.370;-6.314;2023-08-08T09:39:24;100976.13;;;17.37;100.00
29935;BME280;19905;53.370;-6.314;2023-08-08T09:41:53;100989.59;;;17.18;100.00
29935;BME280;19905;53.370;-6.314;2023-08-08T09:44:23;100990.53;;;17.09;100.00
29935;BME280;19905;53.370;-6.314;2023-08-08T09:46:54;100999.84;;;17.05;100.00
29935;BME280;19905;53.370;-6.314;2023-08-08T09:49:23;100987.81;;;17.00;100.00
29935;BME280;19905;53.370;-6.314;2023-08-08T09:51:54;100999.91;;;16.95;100.00
29935;BME280;19905;53.370;-6.314;2023-08-08T09:54:24;101005.47;;;16.84;100.00
29935;BME280;19905;53.370;-6.314;2023-08-08T09:56:55;101016.03;;;16.75;100.00
29935;BME280;19905;53.370;-6.314;2023-08-08T09:59:30;101019.72;;;16.74;100.00
29935;BME280;19905;53.370;-6.314;2023-08-08T10:02:00;101019.03;;;16.63;100.00
29935;BME280;19905;53.370;-6.314;2023-08-08T10:04:30;101016.53;;;16.61;100.00
29935;BME280;19905;53.370;-6.314;2023-08-08T10:07:03;101014.13;;;16.58;100.00
29935;BME280;19905;53.370;-6.314;2023-08-08T10:09:32;101013.00;;;16.61;100.00
29935;BME280;19905;53.370;-6.314;2023-08-08T10:12:02;101014.13;;;16.58;100.00
29935;BME280;19905;53.370;-6.314;2023-08-08T10:14:31;101005.69;;;16.72;100.00
29935;BME280;19905;53.370;-6.314;2023-08-08T10:17:02;101007.84;;;16.87;100.00
29935;BME280;19905;53.370;-6.314;2023-08-08T10:19:32;101006.09;;;16.95;100.00
29935;BME280;19905;53.370;-6.314;2023-08-08T10:22:04;101011.59;;;17.12;100.00
29935;BME280;19905;53.370;-6.314;2023-08-08T10:24:36;101021.03;;;17.06;100.00
29935;BME280;19905;53.370;-6.314;2023-08-08T10:27:05;101009.38;;;17.25;100.00
29935;BME280;19905;53.370;-6.314;2023-08-08T10:29:33;101000.53;;;17.24;100.00
29935;BME280;19905;53.370;-6.314;2023-08-08T10:32:06;101004.50;;;17.20;100.00
29935;BME280;19905;53.370;-6.314;2023-08-08T10:34:40;101000.53;;;17.24;100.00
29935;BME280;19905;53.370;-6.314;2023-08-08T10:37:12;101009.91;;;17.28;100.00
29935;BME280;19905;53.370;-6.314;2023-08-08T10:39:52;101007.09;;;17.30;100.00
29935;BME280;19905;53.370;-6.314;2023-08-08T10:42:23;101013.03;;;17.24;100.00
29935;BME280;19905;53.370;-6.314;2023-08-08T10:44:53;101008.63;;;17.15;100.00
29935;BME280;19905;53.370;-6.314;2023-08-08T10:47:25;101004.50;;;17.02;100.00
29935;BME280;19905;53.370;-6.314;2023-08-08T10:50:05;101012.94;;;16.80;100.00
29935;BME280;19905;53.370;-6.314;2023-08-08T10:52:50;101013.69;;;16.72;100.00
29935;BME280;19905;53.370;-6.314;2023-08-08T10:55:20;101017.91;;;16.65;100.00
29935;BME280;19905;53.370;-6.314;2023-08-08T10:57:57;101017.34;;;16.34;100.00
29935;BME280;19905;53.370;-6.314;2023-08-08T11:00:28;101019.78;;;16.27;100.00
29935;BME280;19905;53.370;-6.314;2023-08-08T11:03:01;101013.34;;;16.20;100.00
29935;BME280;19905;53.370;-6.314;2023-08-08T11:05:33;101021.22;;;16.22;100.00
29935;BME280;19905;53.370;-6.314;2023-08-08T11:08:06;101015.16;;;16.20;100.00
29935;BME280;19905;53.370;-6.314;2023-08-08T11:10:36;101017.00;;;16.19;100.00
29935;BME280;19905;53.370;-6.314;2023-08-08T11:13:06;101014.94;;;16.13;100.00
29935;BME280;19905;53.370;-6.314;2023-08-08T11:15:36;101019.22;;;16.24;100.00
29935;BME280;19905;53.370;-6.314;2023-08-08T11:18:06;101023.56;;;16.25;100.00
29935;BME280;19905;53.370;-6.314;2023-08-08T11:20:37;101030.88;;;16.23;100.00
29935;BME280;19905;53.370;-6.314;2023-08-08T11:23:09;101030.28;;;16.29;100.00
29935;BME280;19905;53.370;-6.314;2023-08-08T11:25:42;101033.66;;;16.31;100.00
29935;BME280;19905;53.370;-6.314;2023-08-08T11:28:12;101039.44;;;16.26;100.00
29935;BME280;19905;53.370;-6.314;2023-08-08T11:30:42;101041.53;;;16.23;100.00
29935;BME280;19905;53.370;-6.314;2023-08-08T11:33:13;101046.31;;;16.19;100.00
29935;BME280;19905;53.370;-6.314;2023-08-08T11:35:45;101038.91;;;16.13;100.00
29935;BME280;19905;53.370;-6.314;2023-08-08T11:38:17;101045.91;;;16.14;100.00
29935;BME280;19905;53.370;-6.314;2023-08-08T11:40:47;101048.59;;;16.14;100.00
29935;BME280;19905;53.370;-6.314;2023-08-08T11:43:16;101045.50;;;16.09;100.00
29935;BME280;19905;53.370;-6.314;2023-08-08T11:45:45;101058.81;;;16.19;100.00
29935;BME280;19905;53.370;-6.314;2023-08-08T11:48:14;101049.13;;;16.18;100.00
29935;BME280;19905;53.370;-6.314;2023-08-08T11:50:42;101056.41;;;16.16;100.00
29935;BME280;19905;53.370;-6.314;2023-08-08T11:53:13;101056.28;;;16.17;100.00
29935;BME280;19905;53.370;-6.314;2023-08-08T11:55:47;101045.47;;;16.19;100.00
29935;BME280;19905;53.370;-6.314;2023-08-08T11:58:15;101046.16;;;16.21;100.00
29935;BME280;19905;53.370;-6.314;2023-08-08T12:00:45;101046.91;;;16.13;100.00
29935;BME280;19905;53.370;-6.314;2023-08-08T12:03:14;101046.06;;;16.13;100.00
29935;BME280;19905;53.370;-6.314;2023-08-08T12:05:46;101062.75;;;16.15;100.00
29935;BME280;19905;53.370;-6.314;2023-08-08T12:08:17;101053.06;;;16.14;100.00
29935;BME280;19905;53.370;-6.314;2023-08-08T12:10:50;101055.28;;;16.28;100.00
29935;BME280;19905;53.370;-6.314;2023-08-08T12:13:25;101046.69;;;16.34;100.00
29935;BME280;19905;53.370;-6.314;2023-08-08T12:15:55;101043.09;;;16.53;100.00
29935;BME280;19905;53.370;-6.314;2023-08-08T12:18:30;101035.09;;;16.53;100.00
29935;BME280;19905;53.370;-6.314;2023-08-08T12:20:59;101028.84;;;16.72;100.00
29935;BME280;19905;53.370;-6.314;2023-08-08T12:23:29;101025.28;;;16.81;100.00
29935;BME280;19905;53.370;-6.314;2023-08-08T12:26:00;101021.41;;;16.93;100.00
29935;BME280;19905;53.370;-6.314;2023-08-08T12:28:33;101016.16;;;17.37;100.00
29935;BME280;19905;53.370;-6.314;2023-08-08T12:31:03;101001.16;;;17.18;100.00
29935;BME280;19905;53.370;-6.314;2023-08-08T12:33:32;101009.81;;;17.74;100.00
29935;BME280;19905;53.370;-6.314;2023-08-08T12:36:03;100994.81;;;17.81;100.00
29935;BME280;19905;53.370;-6.314;2023-08-08T12:38:32;100997.16;;;18.10;100.00
29935;BME280;19905;53.370;-6.314;2023-08-08T12:41:02;100986.28;;;18.46;100.00
29935;BME280;19905;53.370;-6.314;2023-08-08T12:43:31;100975.09;;;18.50;100.00
29935;BME280;19905;53.370;-6.314;2023-08-08T12:46:01;100978.84;;;18.66;100.00
29935;BME280;19905;53.370;-6.314;2023-08-08T12:48:29;100976.91;;;18.84;100.00